sensor_id;sensor_type;location;lat;lon;timestamp;temperature;humidity
31677;DHT22;18385;51.572;6.578;2022-11-15T00:00:03;13.40;65.30
31677;DHT22;18385;51.572;6.578;2022-11-15T00:02:47;13.40;65.30
31677;DHT22;18385;51.572;6.578;2022-11-15T00:05:34;13.40;65.40
31677;DHT22;18385;51.572;6.578;2022-11-15T00:08:20;13.50;65.40
31677;DHT22;18385;51.572;6.578;2022-11-15T00:11:04;13.50;65.30
31677;DHT22;18385;51.572;6.578;2022-11-15T00:13:48;13.50;65.20
31677;DHT22;18385;51.572;6.578;2022-11-15T00:16:32;13.50;65.30
31677;DHT22;18385;51.572;6.578;2022-11-15T00:19:16;13.60;65.40
31677;DHT22;18385;51.572;6.578;2022-11-15T00:22:01;13.60;65.30
31677;DHT22;18385;51.572;6.578;2022-11-15T00:24:45;13.70;65.20
31677;DHT22;18385;51.572;6.578;2022-11-15T00:27:29;13.80;65.20
31677;DHT22;18385;51.572;6.578;2022-11-15T00:30:13;13.80;65.20
31677;DHT22;18385;51.572;6.578;2022-11-15T00:33:04;13.80;65.20
31677;DHT22;18385;51.572;6.578;2022-11-15T00:35:49;13.80;65.10
31677;DHT22;18385;51.572;6.578;2022-11-15T00:38:35;13.80;65.10
31677;DHT22;18385;51.572;6.578;2022-11-15T00:41:19;13.90;65.20
31677;DHT22;18385;51.572;6.578;2022-11-15T00:44:03;13.90;65.30
31677;DHT22;18385;51.572;6.578;2022-11-15T00:46:47;13.90;65.20
31677;DHT22;18385;51.572;6.578;2022-11-15T00:49:31;13.90;65.20
31677;DHT22;18385;51.572;6.578;2022-11-15T00:52:15;13.90;65.20
31677;DHT22;18385;51.572;6.578;2022-11-15T00:55:00;14.00;65.30
31677;DHT22;18385;51.572;6.578;2022-11-15T00:57:44;14.00;65.40
31677;DHT22;18385;51.572;6.578;2022-11-15T01:00:28;14.00;65.30
31677;DHT22;18385;51.572;6.578;2022-11-15T01:03:12;14.00;65.30
31677;DHT22;18385;51.572;6.578;2022-11-15T01:05:59;14.00;65.40
31677;DHT22;18385;51.572;6.578;2022-11-15T01:08:43;14.10;65.40
31677;DHT22;18385;51.572;6.578;2022-11-15T01:11:28;14.00;65.40
31677;DHT22;18385;51.572;6.578;2022-11-15T01:14:12;14.00;65.50
31677;DHT22;18385;51.572;6.578;2022-11-15T01:16:56;14.10;65.60
31677;DHT22;18385;51.572;6.578;2022-11-15T01:19:40;14.00;65.60
31677;DHT22;18385;51.572;6.578;2022-11-15T01:22:24;14.10;65.60
31677;DHT22;18385;51.572;6.578;2022-11-15T01:25:08;14.10;65.80
31677;DHT22;18385;51.572;6.578;2022-11-15T01:27:52;14.10;66.20
31677;DHT22;18385;51.572;6.578;2022-11-15T01:30:36;14.10;66.50
31677;DHT22;18385;51.572;6.578;2022-11-15T01:33:20;14.10;65.80
31677;DHT22;18385;51.572;6.578;2022-11-15T01:36:11;14.20;65.90
31677;DHT22;18385;51.572;6.578;2022-11-15T01:38:59;14.20;65.90
31677;DHT22;18385;51.572;6.578;2022-11-15T01:41:43;14.20;65.80
31677;DHT22;18385;51.572;6.578;2022-11-15T01:47:23;14.30;66.00
31677;DHT22;18385;51.572;6.578;2022-11-15T01:50:12;14.40;66.00
31677;DHT22;18385;51.572;6.578;2022-11-15T01:52:56;14.40;65.90
31677;DHT22;18385;51.572;6.578;2022-11-15T01:55:40;14.50;66.00
31677;DHT22;18385;51.572;6.578;2022-11-15T01:58:25;14.50;65.90
31677;DHT22;18385;51.572;6.578;2022-11-15T02:01:09;14.50;66.00
31677;DHT22;18385;51.572;6.578;2022-11-15T02:07:02;14.60;65.90
31677;DHT22;18385;51.572;6.578;2022-11-15T02:09:46;14.60;66.00
31677;DHT22;18385;51.572;6.578;2022-11-15T02:12:32;14.60;66.10
31677;DHT22;18385;51.572;6.578;2022-11-15T02:15:17;14.60;66.10
31677;DHT22;18385;51.572;6.578;2022-11-15T02:30:45;14.80;66.30
31677;DHT22;18385;51.572;6.578;2022-11-15T02:37:03;14.90;66.40
31677;DHT22;18385;51.572;6.578;2022-11-15T02:40:11;14.90;66.40
31677;DHT22;18385;51.572;6.578;2022-11-15T02:43:09;15.00;66.50
31677;DHT22;18385;51.572;6.578;2022-11-15T02:46:22;15.00;66.40
31677;DHT22;18385;51.572;6.578;2022-11-15T02:49:28;15.00;66.40
31677;DHT22;18385;51.572;6.578;2022-11-15T02:52:16;15.10;66.50
31677;DHT22;18385;51.572;6.578;2022-11-15T02:55:02;15.10;66.50
31677;DHT22;18385;51.572;6.578;2022-11-15T02:58:04;15.20;66.50
31677;DHT22;18385;51.572;6.578;2022-11-15T03:00:59;15.30;66.40
31677;DHT22;18385;51.572;6.578;2022-11-15T03:04:00;15.30;66.30
31677;DHT22;18385;51.572;6.578;2022-11-15T03:10:31;15.30;66.50
31677;DHT22;18385;51.572;6.578;2022-11-15T03:13:27;15.30;66.60
31677;DHT22;18385;51.572;6.578;2022-11-15T03:16:34;15.30;66.60
31677;DHT22;18385;51.572;6.578;2022-11-15T03:22:14;15.30;66.60
31677;DHT22;18385;51.572;6.578;2022-11-15T03:25:03;15.30;66.60
31677;DHT22;18385;51.572;6.578;2022-11-15T03:27:52;15.30;66.60
31677;DHT22;18385;51.572;6.578;2022-11-15T03:30:38;15.30;66.60
31677;DHT22;18385;51.572;6.578;2022-11-15T03:33:23;15.30;66.60
31677;DHT22;18385;51.572;6.578;2022-11-15T03:36:08;15.20;66.60
31677;DHT22;18385;51.572;6.578;2022-11-15T03:38:56;15.30;66.70
31677;DHT22;18385;51.572;6.578;2022-11-15T03:50:38;15.30;66.80
31677;DHT22;18385;51.572;6.578;2022-11-15T03:53:22;15.20;66.80
31677;DHT22;18385;51.572;6.578;2022-11-15T03:56:06;15.20;67.00
31677;DHT22;18385;51.572;6.578;2022-11-15T03:58:51;15.20;67.00
31677;DHT22;18385;51.572;6.578;2022-11-15T04:01:35;15.20;67.10
31677;DHT22;18385;51.572;6.578;2022-11-15T04:04:19;15.20;67.20
31677;DHT22;18385;51.572;6.578;2022-11-15T04:07:04;15.20;67.30
31677;DHT22;18385;51.572;6.578;2022-11-15T04:09:48;15.20;67.30
31677;DHT22;18385;51.572;6.578;2022-11-15T04:12:48;15.20;67.40
31677;DHT22;18385;51.572;6.578;2022-11-15T04:15:32;15.20;67.50
31677;DHT22;18385;51.572;6.578;2022-11-15T04:18:17;15.20;67.60
31677;DHT22;18385;51.572;6.578;2022-11-15T04:21:01;15.20;67.60
31677;DHT22;18385;51.572;6.578;2022-11-15T04:24:04;15.20;67.60
31677;DHT22;18385;51.572;6.578;2022-11-15T04:26:51;15.20;67.70
31677;DHT22;18385;51.572;6.578;2022-11-15T04:29:35;15.20;67.70
31677;DHT22;18385;51.572;6.578;2022-11-15T04:32:19;15.20;67.70
31677;DHT22;18385;51.572;6.578;2022-11-15T04:35:04;15.20;67.80
31677;DHT22;18385;51.572;6.578;2022-11-15T04:37:48;15.10;67.90
31677;DHT22;18385;51.572;6.578;2022-11-15T04:40:32;15.10;68.00
31677;DHT22;18385;51.572;6.578;2022-11-15T04:43:16;15.10;68.10
31677;DHT22;18385;51.572;6.578;2022-11-15T04:46:01;15.10;68.20
31677;DHT22;18385;51.572;6.578;2022-11-15T04:48:45;15.10;68.30
31677;DHT22;18385;51.572;6.578;2022-11-15T04:51:29;15.20;68.40
31677;DHT22;18385;51.572;6.578;2022-11-15T04:54:13;15.20;68.30
31677;DHT22;18385;51.572;6.578;2022-11-15T04:56:57;15.20;68.40
31677;DHT22;18385;51.572;6.578;2022-11-15T04:59:41;15.20;68.60
31677;DHT22;18385;51.572;6.578;2022-11-15T05:02:25;15.10;68.60
31677;DHT22;18385;51.572;6.578;2022-11-15T05:05:29;15.10;68.70
31677;DHT22;18385;51.572;6.578;2022-11-15T05:08:13;15.10;68.80
31677;DHT22;18385;51.572;6.578;2022-11-15T05:10:57;15.10;68.90
31677;DHT22;18385;51.572;6.578;2022-11-15T05:13:41;15.10;69.70
31677;DHT22;18385;51.572;6.578;2022-11-15T05:16:25;15.10;69.00
31677;DHT22;18385;51.572;6.578;2022-11-15T05:19:09;15.10;69.00
31677;DHT22;18385;51.572;6.578;2022-11-15T05:21:53;15.10;69.10
31677;DHT22;18385;51.572;6.578;2022-11-15T05:24:38;15.10;69.20
31677;DHT22;18385;51.572;6.578;2022-11-15T05:27:21;15.10;69.30
31677;DHT22;18385;51.572;6.578;2022-11-15T05:30:06;15.10;69.30
31677;DHT22;18385;51.572;6.578;2022-11-15T05:32:51;15.10;69.30
31677;DHT22;18385;51.572;6.578;2022-11-15T05:35:39;15.10;69.30
31677;DHT22;18385;51.572;6.578;2022-11-15T05:38:24;15.10;69.50
31677;DHT22;18385;51.572;6.578;2022-11-15T05:41:08;15.10;69.60
31677;DHT22;18385;51.572;6.578;2022-11-15T05:43:53;15.10;69.60
31677;DHT22;18385;51.572;6.578;2022-11-15T05:46:39;15.10;69.70
31677;DHT22;18385;51.572;6.578;2022-11-15T05:49:27;15.10;69.70
31677;DHT22;18385;51.572;6.578;2022-11-15T05:52:16;15.10;69.70
31677;DHT22;18385;51.572;6.578;2022-11-15T05:55:03;15.20;69.80
31677;DHT22;18385;51.572;6.578;2022-11-15T05:57:49;15.10;69.50
31677;DHT22;18385;51.572;6.578;2022-11-15T06:00:33;15.10;69.80
31677;DHT22;18385;51.572;6.578;2022-11-15T06:03:18;15.10;69.80
31677;DHT22;18385;51.572;6.578;2022-11-15T06:06:02;15.10;69.90
31677;DHT22;18385;51.572;6.578;2022-11-15T06:08:46;15.10;69.80
31677;DHT22;18385;51.572;6.578;2022-11-15T06:11:31;15.20;69.90
31677;DHT22;18385;51.572;6.578;2022-11-15T06:14:15;15.20;69.90
31677;DHT22;18385;51.572;6.578;2022-11-15T06:17:00;15.20;69.90
31677;DHT22;18385;51.572;6.578;2022-11-15T06:19:44;15.20;69.90
31677;DHT22;18385;51.572;6.578;2022-11-15T06:22:28;15.20;70.00
31677;DHT22;18385;51.572;6.578;2022-11-15T06:25:12;15.30;70.10
31677;DHT22;18385;51.572;6.578;2022-11-15T06:27:59;15.30;70.00
31677;DHT22;18385;51.572;6.578;2022-11-15T06:30:43;15.30;70.00
31677;DHT22;18385;51.572;6.578;2022-11-15T06:33:27;15.30;70.00
31677;DHT22;18385;51.572;6.578;2022-11-15T06:36:12;15.30;70.00
31677;DHT22;18385;51.572;6.578;2022-11-15T06:38:59;15.40;70.10
31677;DHT22;18385;51.572;6.578;2022-11-15T06:41:43;15.40;70.00
31677;DHT22;18385;51.572;6.578;2022-11-15T06:44:27;15.40;70.00
31677;DHT22;18385;51.572;6.578;2022-11-15T06:47:11;15.40;70.10
31677;DHT22;18385;51.572;6.578;2022-11-15T06:49:55;15.40;70.00
31677;DHT22;18385;51.572;6.578;2022-11-15T06:52:39;15.40;70.10
31677;DHT22;18385;51.572;6.578;2022-11-15T06:55:23;15.50;70.10
31677;DHT22;18385;51.572;6.578;2022-11-15T06:58:07;15.50;70.10
31677;DHT22;18385;51.572;6.578;2022-11-15T07:00:51;15.50;70.10
31677;DHT22;18385;51.572;6.578;2022-11-15T07:03:37;15.50;70.00
31677;DHT22;18385;51.572;6.578;2022-11-15T07:06:22;15.60;70.10
31677;DHT22;18385;51.572;6.578;2022-11-15T07:09:06;15.60;70.00
31677;DHT22;18385;51.572;6.578;2022-11-15T07:11:51;15.60;70.00
31677;DHT22;18385;51.572;6.578;2022-11-15T07:14:35;15.60;70.00
31677;DHT22;18385;51.572;6.578;2022-11-15T07:17:19;15.60;70.00
31677;DHT22;18385;51.572;6.578;2022-11-15T07:20:04;15.60;70.00
31677;DHT22;18385;51.572;6.578;2022-11-15T07:22:48;15.60;70.10
31677;DHT22;18385;51.572;6.578;2022-11-15T07:25:32;15.60;70.10
31677;DHT22;18385;51.572;6.578;2022-11-15T07:28:17;15.60;70.20
31677;DHT22;18385;51.572;6.578;2022-11-15T07:31:06;15.60;70.20
31677;DHT22;18385;51.572;6.578;2022-11-15T07:33:51;15.60;70.20
31677;DHT22;18385;51.572;6.578;2022-11-15T07:36:34;15.60;70.20
31677;DHT22;18385;51.572;6.578;2022-11-15T07:39:19;15.70;70.20
31677;DHT22;18385;51.572;6.578;2022-11-15T07:42:03;15.70;70.20
31677;DHT22;18385;51.572;6.578;2022-11-15T07:45:06;15.70;70.10
31677;DHT22;18385;51.572;6.578;2022-11-15T07:47:51;15.80;70.10
31677;DHT22;18385;51.572;6.578;2022-11-15T07:50:36;15.70;70.00
31677;DHT22;18385;51.572;6.578;2022-11-15T07:53:21;15.70;70.10
31677;DHT22;18385;51.572;6.578;2022-11-15T07:56:08;15.70;70.20
31677;DHT22;18385;51.572;6.578;2022-11-15T07:58:52;15.70;70.30
31677;DHT22;18385;51.572;6.578;2022-11-15T08:01:37;15.60;70.20
31677;DHT22;18385;51.572;6.578;2022-11-15T08:04:21;15.60;70.20
31677;DHT22;18385;51.572;6.578;2022-11-15T08:07:05;15.50;70.40
31677;DHT22;18385;51.572;6.578;2022-11-15T08:09:49;15.60;70.50
31677;DHT22;18385;51.572;6.578;2022-11-15T08:12:33;15.60;70.50
31677;DHT22;18385;51.572;6.578;2022-11-15T08:15:18;15.60;70.40
31677;DHT22;18385;51.572;6.578;2022-11-15T08:18:09;15.70;70.40
31677;DHT22;18385;51.572;6.578;2022-11-15T08:20:59;15.70;70.30
31677;DHT22;18385;51.572;6.578;2022-11-15T08:23:43;15.60;70.20
31677;DHT22;18385;51.572;6.578;2022-11-15T08:26:27;15.60;70.40
31677;DHT22;18385;51.572;6.578;2022-11-15T08:29:14;15.50;70.50
31677;DHT22;18385;51.572;6.578;2022-11-15T08:31:58;15.50;70.40
31677;DHT22;18385;51.572;6.578;2022-11-15T08:34:42;15.50;70.40
31677;DHT22;18385;51.572;6.578;2022-11-15T08:37:26;15.50;70.40
31677;DHT22;18385;51.572;6.578;2022-11-15T08:40:11;15.50;70.40
31677;DHT22;18385;51.572;6.578;2022-11-15T08:42:55;15.50;70.40
31677;DHT22;18385;51.572;6.578;2022-11-15T08:45:39;15.50;70.30
31677;DHT22;18385;51.572;6.578;2022-11-15T08:48:23;15.50;70.10
31677;DHT22;18385;51.572;6.578;2022-11-15T08:51:07;15.40;70.20
31677;DHT22;18385;51.572;6.578;2022-11-15T08:53:51;15.30;70.20
31677;DHT22;18385;51.572;6.578;2022-11-15T08:56:36;15.40;70.40
31677;DHT22;18385;51.572;6.578;2022-11-15T08:59:20;15.50;70.20
31677;DHT22;18385;51.572;6.578;2022-11-15T09:02:04;15.50;70.10
31677;DHT22;18385;51.572;6.578;2022-11-15T09:04:48;15.60;70.10
31677;DHT22;18385;51.572;6.578;2022-11-15T09:07:32;15.70;70.20
31677;DHT22;18385;51.572;6.578;2022-11-15T09:10:17;15.80;69.80
31677;DHT22;18385;51.572;6.578;2022-11-15T09:13:01;15.90;69.70
31677;DHT22;18385;51.572;6.578;2022-11-15T09:15:45;15.90;69.60
31677;DHT22;18385;51.572;6.578;2022-11-15T09:18:30;15.80;69.50
31677;DHT22;18385;51.572;6.578;2022-11-15T09:21:14;15.70;69.50
31677;DHT22;18385;51.572;6.578;2022-11-15T09:23:58;15.70;69.70
31677;DHT22;18385;51.572;6.578;2022-11-15T09:26:43;15.80;69.90
31677;DHT22;18385;51.572;6.578;2022-11-15T09:29:27;15.90;69.80
31677;DHT22;18385;51.572;6.578;2022-11-15T09:32:11;16.00;69.60
31677;DHT22;18385;51.572;6.578;2022-11-15T09:34:56;16.10;69.50
31677;DHT22;18385;51.572;6.578;2022-11-15T09:37:40;16.20;69.50
31677;DHT22;18385;51.572;6.578;2022-11-15T09:40:24;16.30;69.40
31677;DHT22;18385;51.572;6.578;2022-11-15T09:43:37;16.30;69.10
31677;DHT22;18385;51.572;6.578;2022-11-15T09:49:42;16.20;69.00
31677;DHT22;18385;51.572;6.578;2022-11-15T09:52:16;16.10;69.20
31677;DHT22;18385;51.572;6.578;2022-11-15T09:54:48;15.90;69.20
31677;DHT22;18385;51.572;6.578;2022-11-15T09:57:30;15.90;69.40
31677;DHT22;18385;51.572;6.578;2022-11-15T10:00:06;15.80;69.30
31677;DHT22;18385;51.572;6.578;2022-11-15T10:06:02;15.80;69.50
31677;DHT22;18385;51.572;6.578;2022-11-15T10:11:20;15.70;69.70
31677;DHT22;18385;51.572;6.578;2022-11-15T10:13:48;15.70;69.70
31677;DHT22;18385;51.572;6.578;2022-11-15T10:22:16;15.70;69.70
31677;DHT22;18385;51.572;6.578;2022-11-15T10:24:45;15.70;69.60
31677;DHT22;18385;51.572;6.578;2022-11-15T10:27:13;15.70;69.50
31677;DHT22;18385;51.572;6.578;2022-11-15T10:29:47;15.70;69.30
31677;DHT22;18385;51.572;6.578;2022-11-15T10:32:19;15.80;69.40
31677;DHT22;18385;51.572;6.578;2022-11-15T10:34:47;15.80;69.40
31677;DHT22;18385;51.572;6.578;2022-11-15T10:37:13;15.80;69.40
31677;DHT22;18385;51.572;6.578;2022-11-15T10:39:39;15.90;69.30
31677;DHT22;18385;51.572;6.578;2022-11-15T10:44:49;16.00;69.00
31677;DHT22;18385;51.572;6.578;2022-11-15T10:47:30;16.10;68.90
31677;DHT22;18385;51.572;6.578;2022-11-15T10:50:04;16.10;68.80
31677;DHT22;18385;51.572;6.578;2022-11-15T10:52:33;16.10;68.80
31677;DHT22;18385;51.572;6.578;2022-11-15T10:55:04;16.10;68.80
31677;DHT22;18385;51.572;6.578;2022-11-15T10:57:33;16.20;68.70
31677;DHT22;18385;51.572;6.578;2022-11-15T11:00:12;16.30;68.70
31677;DHT22;18385;51.572;6.578;2022-11-15T11:03:28;16.30;68.60
31677;DHT22;18385;51.572;6.578;2022-11-15T11:06:03;16.40;68.30
31677;DHT22;18385;51.572;6.578;2022-11-15T11:08:29;16.50;68.20
31677;DHT22;18385;51.572;6.578;2022-11-15T11:11:00;16.50;68.00
31677;DHT22;18385;51.572;6.578;2022-11-15T11:13:28;16.50;67.70
31677;DHT22;18385;51.572;6.578;2022-11-15T11:16:16;16.50;67.70
31677;DHT22;18385;51.572;6.578;2022-11-15T11:24:23;16.60;67.40
31677;DHT22;18385;51.572;6.578;2022-11-15T11:35:22;16.80;66.80
31677;DHT22;18385;51.572;6.578;2022-11-15T11:37:59;16.90;66.60
31677;DHT22;18385;51.572;6.578;2022-11-15T11:40:41;16.90;66.30
31677;DHT22;18385;51.572;6.578;2022-11-15T11:43:11;17.00;66.30
31677;DHT22;18385;51.572;6.578;2022-11-15T11:45:44;17.00;66.80
31677;DHT22;18385;51.572;6.578;2022-11-15T11:48:40;17.00;66.30
31677;DHT22;18385;51.572;6.578;2022-11-15T11:56:29;16.90;65.30
31677;DHT22;18385;51.572;6.578;2022-11-15T11:59:05;16.80;66.20
31677;DHT22;18385;51.572;6.578;2022-11-15T12:01:37;16.80;65.30
31677;DHT22;18385;51.572;6.578;2022-11-15T12:06:38;16.80;65.00
31677;DHT22;18385;51.572;6.578;2022-11-15T12:15:04;16.90;64.50
31677;DHT22;18385;51.572;6.578;2022-11-15T12:17:37;16.90;64.50
31677;DHT22;18385;51.572;6.578;2022-11-15T12:20:25;16.90;64.30
31677;DHT22;18385;51.572;6.578;2022-11-15T12:23:12;16.90;64.10
31677;DHT22;18385;51.572;6.578;2022-11-15T12:25:57;16.80;64.00
31677;DHT22;18385;51.572;6.578;2022-11-15T12:28:37;16.80;63.90
31677;DHT22;18385;51.572;6.578;2022-11-15T12:31:19;16.80;63.70
31677;DHT22;18385;51.572;6.578;2022-11-15T12:33:47;16.80;63.70
31677;DHT22;18385;51.572;6.578;2022-11-15T12:39:01;17.00;63.30
31677;DHT22;18385;51.572;6.578;2022-11-15T13:13:00;17.50;61.00
31677;DHT22;18385;51.572;6.578;2022-11-15T13:18:38;17.50;60.70
31677;DHT22;18385;51.572;6.578;2022-11-15T13:21:17;17.50;60.60
31677;DHT22;18385;51.572;6.578;2022-11-15T13:24:04;17.50;60.40
31677;DHT22;18385;51.572;6.578;2022-11-15T13:26:30;17.40;61.10
31677;DHT22;18385;51.572;6.578;2022-11-15T13:28:56;17.50;60.10
31677;DHT22;18385;51.572;6.578;2022-11-15T13:31:29;17.50;60.10
31677;DHT22;18385;51.572;6.578;2022-11-15T13:34:12;17.60;59.90
31677;DHT22;18385;51.572;6.578;2022-11-15T13:36:39;17.60;59.60
31677;DHT22;18385;51.572;6.578;2022-11-15T13:39:34;17.70;59.80
31677;DHT22;18385;51.572;6.578;2022-11-15T13:41:58;17.80;59.40
31677;DHT22;18385;51.572;6.578;2022-11-15T13:44:32;17.90;59.30
31677;DHT22;18385;51.572;6.578;2022-11-15T13:47:15;18.00;59.00
31677;DHT22;18385;51.572;6.578;2022-11-15T13:49:41;18.10;59.00
31677;DHT22;18385;51.572;6.578;2022-11-15T13:52:10;18.20;59.00
31677;DHT22;18385;51.572;6.578;2022-11-15T13:54:44;18.30;58.80
31677;DHT22;18385;51.572;6.578;2022-11-15T13:57:12;18.40;58.60
31677;DHT22;18385;51.572;6.578;2022-11-15T14:02:19;18.50;58.10
31677;DHT22;18385;51.572;6.578;2022-11-15T14:04:55;18.40;58.10
31677;DHT22;18385;51.572;6.578;2022-11-15T14:07:25;18.30;58.00
31677;DHT22;18385;51.572;6.578;2022-11-15T14:09:51;18.30;58.20
31677;DHT22;18385;51.572;6.578;2022-11-15T14:12:50;18.30;58.20
31677;DHT22;18385;51.572;6.578;2022-11-15T14:15:36;18.30;57.90
31677;DHT22;18385;51.572;6.578;2022-11-15T14:18:03;18.30;58.20
31677;DHT22;18385;51.572;6.578;2022-11-15T14:20:33;18.30;57.80
31677;DHT22;18385;51.572;6.578;2022-11-15T14:23:05;18.20;57.50
31677;DHT22;18385;51.572;6.578;2022-11-15T14:25:56;18.10;57.40
31677;DHT22;18385;51.572;6.578;2022-11-15T14:30:48;17.90;57.70
31677;DHT22;18385;51.572;6.578;2022-11-15T14:33:36;17.80;57.60
31677;DHT22;18385;51.572;6.578;2022-11-15T14:36:13;17.70;57.60
31677;DHT22;18385;51.572;6.578;2022-11-15T14:38:40;17.60;57.50
31677;DHT22;18385;51.572;6.578;2022-11-15T14:41:08;17.60;58.10
31677;DHT22;18385;51.572;6.578;2022-11-15T14:43:35;17.60;57.60
31677;DHT22;18385;51.572;6.578;2022-11-15T14:46:01;17.50;57.60
31677;DHT22;18385;51.572;6.578;2022-11-15T14:48:27;17.50;57.50
31677;DHT22;18385;51.572;6.578;2022-11-15T14:50:54;17.40;57.50
31677;DHT22;18385;51.572;6.578;2022-11-15T14:53:19;17.40;57.50
31677;DHT22;18385;51.572;6.578;2022-11-15T14:55:45;17.40;57.50
31677;DHT22;18385;51.572;6.578;2022-11-15T14:58:11;17.40;57.40
31677;DHT22;18385;51.572;6.578;2022-11-15T15:00:38;17.30;57.30
31677;DHT22;18385;51.572;6.578;2022-11-15T15:03:05;17.30;57.30
31677;DHT22;18385;51.572;6.578;2022-11-15T15:05:36;17.30;57.40
31677;DHT22;18385;51.572;6.578;2022-11-15T15:08:03;17.30;56.80
31677;DHT22;18385;51.572;6.578;2022-11-15T15:10:32;17.30;57.40
31677;DHT22;18385;51.572;6.578;2022-11-15T15:12:59;17.20;57.30
31677;DHT22;18385;51.572;6.578;2022-11-15T15:15:31;17.20;57.30
31677;DHT22;18385;51.572;6.578;2022-11-15T15:17:57;17.20;57.30
31677;DHT22;18385;51.572;6.578;2022-11-15T15:20:23;17.10;57.30
31677;DHT22;18385;51.572;6.578;2022-11-15T15:22:48;17.10;57.30
31677;DHT22;18385;51.572;6.578;2022-11-15T15:27:52;17.00;57.30
31677;DHT22;18385;51.572;6.578;2022-11-15T15:30:18;17.00;57.30
31677;DHT22;18385;51.572;6.578;2022-11-15T15:32:44;17.00;57.40
31677;DHT22;18385;51.572;6.578;2022-11-15T15:35:12;16.90;57.30
31677;DHT22;18385;51.572;6.578;2022-11-15T15:37:38;16.90;57.30
31677;DHT22;18385;51.572;6.578;2022-11-15T15:40:14;16.90;57.40
31677;DHT22;18385;51.572;6.578;2022-11-15T15:42:41;16.80;57.30
31677;DHT22;18385;51.572;6.578;2022-11-15T15:45:07;16.80;57.50
31677;DHT22;18385;51.572;6.578;2022-11-15T15:47:33;16.70;57.50
31677;DHT22;18385;51.572;6.578;2022-11-15T15:49:59;16.70;57.50
31677;DHT22;18385;51.572;6.578;2022-11-15T15:52:25;16.70;57.60
31677;DHT22;18385;51.572;6.578;2022-11-15T15:54:50;16.70;57.60
31677;DHT22;18385;51.572;6.578;2022-11-15T15:57:16;16.70;57.60
31677;DHT22;18385;51.572;6.578;2022-11-15T15:59:42;16.70;57.60
31677;DHT22;18385;51.572;6.578;2022-11-15T16:02:14;16.70;57.70
31677;DHT22;18385;51.572;6.578;2022-11-15T16:04:40;16.70;57.60
31677;DHT22;18385;51.572;6.578;2022-11-15T16:07:05;16.70;57.70
31677;DHT22;18385;51.572;6.578;2022-11-15T16:09:33;16.70;57.60
31677;DHT22;18385;51.572;6.578;2022-11-15T16:12:17;16.70;57.60
31677;DHT22;18385;51.572;6.578;2022-11-15T16:14:43;16.70;57.70
31677;DHT22;18385;51.572;6.578;2022-11-15T16:17:17;16.70;57.70
31677;DHT22;18385;51.572;6.578;2022-11-15T16:19:44;16.70;57.70
31677;DHT22;18385;51.572;6.578;2022-11-15T16:22:09;16.70;57.70
31677;DHT22;18385;51.572;6.578;2022-11-15T16:24:35;16.70;57.70
31677;DHT22;18385;51.572;6.578;2022-11-15T16:27:00;16.70;57.70
31677;DHT22;18385;51.572;6.578;2022-11-15T16:29:26;16.70;57.60
31677;DHT22;18385;51.572;6.578;2022-11-15T16:31:52;16.70;58.30
31677;DHT22;18385;51.572;6.578;2022-11-15T16:34:18;16.70;57.70
31677;DHT22;18385;51.572;6.578;2022-11-15T16:36:43;16.70;57.70
31677;DHT22;18385;51.572;6.578;2022-11-15T16:39:11;16.70;57.70
31677;DHT22;18385;51.572;6.578;2022-11-15T16:41:38;16.80;57.70
31677;DHT22;18385;51.572;6.578;2022-11-15T16:44:04;16.70;57.60
31677;DHT22;18385;51.572;6.578;2022-11-15T16:46:30;16.70;57.60
31677;DHT22;18385;51.572;6.578;2022-11-15T16:48:56;16.70;57.70
31677;DHT22;18385;51.572;6.578;2022-11-15T16:51:22;16.70;57.70
31677;DHT22;18385;51.572;6.578;2022-11-15T16:53:48;16.70;57.70
31677;DHT22;18385;51.572;6.578;2022-11-15T16:58:44;16.70;57.70
31677;DHT22;18385;51.572;6.578;2022-11-15T17:01:19;16.70;57.70
31677;DHT22;18385;51.572;6.578;2022-11-15T17:03:47;16.70;57.70
31677;DHT22;18385;51.572;6.578;2022-11-15T17:06:13;16.70;57.80
31677;DHT22;18385;51.572;6.578;2022-11-15T17:08:39;16.70;57.80
31677;DHT22;18385;51.572;6.578;2022-11-15T17:11:06;16.70;57.70
31677;DHT22;18385;51.572;6.578;2022-11-15T17:13:31;16.80;57.70
31677;DHT22;18385;51.572;6.578;2022-11-15T17:16:05;16.80;57.70
31677;DHT22;18385;51.572;6.578;2022-11-15T17:18:32;16.80;57.70
31677;DHT22;18385;51.572;6.578;2022-11-15T17:21:03;16.80;57.70
31677;DHT22;18385;51.572;6.578;2022-11-15T17:23:29;16.80;57.80
31677;DHT22;18385;51.572;6.578;2022-11-15T17:26:01;16.80;57.70
31677;DHT22;18385;51.572;6.578;2022-11-15T17:28:30;16.80;57.70
31677;DHT22;18385;51.572;6.578;2022-11-15T17:30:56;16.80;57.70
31677;DHT22;18385;51.572;6.578;2022-11-15T17:33:22;16.80;57.70
31677;DHT22;18385;51.572;6.578;2022-11-15T17:36:04;16.80;57.80
31677;DHT22;18385;51.572;6.578;2022-11-15T17:38:30;16.90;57.80
31677;DHT22;18385;51.572;6.578;2022-11-15T17:41:03;16.90;57.80
31677;DHT22;18385;51.572;6.578;2022-11-15T17:43:31;17.00;57.80
31677;DHT22;18385;51.572;6.578;2022-11-15T17:45:58;17.00;57.80
31677;DHT22;18385;51.572;6.578;2022-11-15T17:48:24;17.00;57.70
31677;DHT22;18385;51.572;6.578;2022-11-15T17:50:56;17.00;57.70
31677;DHT22;18385;51.572;6.578;2022-11-15T17:53:22;17.00;57.70
31677;DHT22;18385;51.572;6.578;2022-11-15T17:55:48;17.00;57.70
31677;DHT22;18385;51.572;6.578;2022-11-15T17:58:14;17.00;57.70
31677;DHT22;18385;51.572;6.578;2022-11-15T18:00:44;17.00;57.80
31677;DHT22;18385;51.572;6.578;2022-11-15T18:03:10;17.00;57.70
31677;DHT22;18385;51.572;6.578;2022-11-15T18:05:35;17.10;57.80
31677;DHT22;18385;51.572;6.578;2022-11-15T18:08:01;17.10;57.80
31677;DHT22;18385;51.572;6.578;2022-11-15T18:10:27;17.10;57.80
31677;DHT22;18385;51.572;6.578;2022-11-15T18:12:52;17.10;57.80
31677;DHT22;18385;51.572;6.578;2022-11-15T18:15:18;17.10;57.70
31677;DHT22;18385;51.572;6.578;2022-11-15T18:17:46;17.10;57.70
31677;DHT22;18385;51.572;6.578;2022-11-15T18:20:11;17.10;57.70
31677;DHT22;18385;51.572;6.578;2022-11-15T18:22:37;17.10;57.70
31677;DHT22;18385;51.572;6.578;2022-11-15T18:25:03;17.20;57.80
31677;DHT22;18385;51.572;6.578;2022-11-15T18:27:29;17.20;57.70
31677;DHT22;18385;51.572;6.578;2022-11-15T18:29:54;17.10;57.70
31677;DHT22;18385;51.572;6.578;2022-11-15T18:32:20;17.20;57.80
31677;DHT22;18385;51.572;6.578;2022-11-15T18:34:45;17.20;57.80
31677;DHT22;18385;51.572;6.578;2022-11-15T18:37:11;17.20;57.80
31677;DHT22;18385;51.572;6.578;2022-11-15T18:39:37;17.20;57.80
31677;DHT22;18385;51.572;6.578;2022-11-15T18:42:03;17.20;57.80
31677;DHT22;18385;51.572;6.578;2022-11-15T18:44:29;17.20;57.80
31677;DHT22;18385;51.572;6.578;2022-11-15T18:46:55;17.10;57.80
31677;DHT22;18385;51.572;6.578;2022-11-15T18:49:20;17.10;57.90
31677;DHT22;18385;51.572;6.578;2022-11-15T18:51:46;17.00;58.00